sensor_id;sensor_type;location;lat;lon;timestamp;temperature;humidity
27978;DHT22;15314;49.248;6.968;2022-08-25T00:00:00;20.10;66.90
27978;DHT22;15314;49.248;6.968;2022-08-25T00:01:06;20.10;66.80
27978;DHT22;15314;49.248;6.968;2022-08-25T00:02:08;20.10;66.60
27978;DHT22;15314;49.248;6.968;2022-08-25T00:03:09;20.10;66.80
27978;DHT22;15314;49.248;6.968;2022-08-25T00:04:12;20.10;66.60
27978;DHT22;15314;49.248;6.968;2022-08-25T00:05:13;20.10;66.80
27978;DHT22;15314;49.248;6.968;2022-08-25T00:06:15;20.10;66.60
27978;DHT22;15314;49.248;6.968;2022-08-25T00:07:15;20.10;66.60
27978;DHT22;15314;49.248;6.968;2022-08-25T00:08:16;20.10;66.40
27978;DHT22;15314;49.248;6.968;2022-08-25T00:09:19;20.20;66.50
27978;DHT22;15314;49.248;6.968;2022-08-25T00:10:20;20.20;66.30
27978;DHT22;15314;49.248;6.968;2022-08-25T00:11:22;20.20;66.40
27978;DHT22;15314;49.248;6.968;2022-08-25T00:12:23;20.20;66.30
27978;DHT22;15314;49.248;6.968;2022-08-25T00:13:25;20.20;66.30
27978;DHT22;15314;49.248;6.968;2022-08-25T00:14:30;20.10;66.40
27978;DHT22;15314;49.248;6.968;2022-08-25T00:15:32;20.10;66.40
27978;DHT22;15314;49.248;6.968;2022-08-25T00:16:33;20.10;66.40
27978;DHT22;15314;49.248;6.968;2022-08-25T00:17:34;20.10;66.30
27978;DHT22;15314;49.248;6.968;2022-08-25T00:18:35;20.10;66.20
27978;DHT22;15314;49.248;6.968;2022-08-25T00:19:37;20.10;66.40
27978;DHT22;15314;49.248;6.968;2022-08-25T00:20:38;20.10;66.50
27978;DHT22;15314;49.248;6.968;2022-08-25T00:21:39;20.10;66.50
27978;DHT22;15314;49.248;6.968;2022-08-25T00:22:40;20.10;66.50
27978;DHT22;15314;49.248;6.968;2022-08-25T00:23:42;20.10;66.60
27978;DHT22;15314;49.248;6.968;2022-08-25T00:24:42;20.10;66.60
27978;DHT22;15314;49.248;6.968;2022-08-25T00:25:43;20.10;66.60
27978;DHT22;15314;49.248;6.968;2022-08-25T00:26:45;20.10;66.40
27978;DHT22;15314;49.248;6.968;2022-08-25T00:27:46;20.10;66.50
27978;DHT22;15314;49.248;6.968;2022-08-25T00:28:48;20.10;66.70
27978;DHT22;15314;49.248;6.968;2022-08-25T00:29:48;20.10;66.70
27978;DHT22;15314;49.248;6.968;2022-08-25T00:30:50;20.20;66.40
27978;DHT22;15314;49.248;6.968;2022-08-25T00:31:51;20.10;66.30
27978;DHT22;15314;49.248;6.968;2022-08-25T00:32:52;20.10;66.30
27978;DHT22;15314;49.248;6.968;2022-08-25T00:33:53;20.20;66.50
27978;DHT22;15314;49.248;6.968;2022-08-25T00:34:54;20.20;66.30
27978;DHT22;15314;49.248;6.968;2022-08-25T00:35:55;20.20;66.30
27978;DHT22;15314;49.248;6.968;2022-08-25T00:36:56;20.20;66.20
27978;DHT22;15314;49.248;6.968;2022-08-25T00:37:56;20.20;66.10
27978;DHT22;15314;49.248;6.968;2022-08-25T00:38:57;20.20;66.20
27978;DHT22;15314;49.248;6.968;2022-08-25T00:39:58;20.20;66.20
27978;DHT22;15314;49.248;6.968;2022-08-25T00:40:58;20.20;66.50
27978;DHT22;15314;49.248;6.968;2022-08-25T00:42:06;20.20;66.50
27978;DHT22;15314;49.248;6.968;2022-08-25T00:43:08;20.10;66.30
27978;DHT22;15314;49.248;6.968;2022-08-25T00:44:11;20.10;66.10
27978;DHT22;15314;49.248;6.968;2022-08-25T00:45:12;20.10;66.40
27978;DHT22;15314;49.248;6.968;2022-08-25T00:46:17;20.10;66.20
27978;DHT22;15314;49.248;6.968;2022-08-25T00:47:18;20.10;66.40
27978;DHT22;15314;49.248;6.968;2022-08-25T00:48:19;20.10;66.40
27978;DHT22;15314;49.248;6.968;2022-08-25T00:50:32;20.10;66.70
27978;DHT22;15314;49.248;6.968;2022-08-25T00:51:36;20.10;66.60
27978;DHT22;15314;49.248;6.968;2022-08-25T00:52:44;20.10;66.80
27978;DHT22;15314;49.248;6.968;2022-08-25T00:53:46;20.10;66.60
27978;DHT22;15314;49.248;6.968;2022-08-25T00:55:11;20.00;66.40
27978;DHT22;15314;49.248;6.968;2022-08-25T00:56:13;20.00;66.40
27978;DHT22;15314;49.248;6.968;2022-08-25T00:57:16;20.00;66.80
27978;DHT22;15314;49.248;6.968;2022-08-25T00:58:21;20.00;66.70
27978;DHT22;15314;49.248;6.968;2022-08-25T00:59:24;20.00;66.90
27978;DHT22;15314;49.248;6.968;2022-08-25T01:00:33;20.00;66.80
27978;DHT22;15314;49.248;6.968;2022-08-25T01:01:34;20.00;66.70
27978;DHT22;15314;49.248;6.968;2022-08-25T01:02:35;20.00;66.80
27978;DHT22;15314;49.248;6.968;2022-08-25T01:03:36;19.90;66.90
27978;DHT22;15314;49.248;6.968;2022-08-25T01:04:37;19.90;66.70
27978;DHT22;15314;49.248;6.968;2022-08-25T01:05:39;19.90;67.00
27978;DHT22;15314;49.248;6.968;2022-08-25T01:06:41;19.90;66.80
27978;DHT22;15314;49.248;6.968;2022-08-25T01:07:45;19.90;67.10
27978;DHT22;15314;49.248;6.968;2022-08-25T01:08:46;19.90;67.00
27978;DHT22;15314;49.248;6.968;2022-08-25T01:09:49;19.90;67.20
27978;DHT22;15314;49.248;6.968;2022-08-25T01:10:51;19.90;67.30
27978;DHT22;15314;49.248;6.968;2022-08-25T01:11:52;19.90;67.30
27978;DHT22;15314;49.248;6.968;2022-08-25T01:12:59;19.90;67.40
27978;DHT22;15314;49.248;6.968;2022-08-25T01:14:00;19.80;67.40
27978;DHT22;15314;49.248;6.968;2022-08-25T01:15:07;19.70;67.40
27978;DHT22;15314;49.248;6.968;2022-08-25T01:16:08;19.70;67.40
27978;DHT22;15314;49.248;6.968;2022-08-25T01:17:09;19.70;67.60
27978;DHT22;15314;49.248;6.968;2022-08-25T01:18:10;19.70;67.40
27978;DHT22;15314;49.248;6.968;2022-08-25T01:19:13;19.70;67.60
27978;DHT22;15314;49.248;6.968;2022-08-25T01:20:15;19.70;67.40
27978;DHT22;15314;49.248;6.968;2022-08-25T01:21:18;19.70;67.40
27978;DHT22;15314;49.248;6.968;2022-08-25T01:22:19;19.70;67.70
27978;DHT22;15314;49.248;6.968;2022-08-25T01:23:21;19.70;67.70
27978;DHT22;15314;49.248;6.968;2022-08-25T01:24:49;19.70;67.80
27978;DHT22;15314;49.248;6.968;2022-08-25T01:26:12;19.70;67.50
27978;DHT22;15314;49.248;6.968;2022-08-25T01:27:13;19.70;67.60
27978;DHT22;15314;49.248;6.968;2022-08-25T01:28:14;19.80;67.30
27978;DHT22;15314;49.248;6.968;2022-08-25T01:29:15;19.80;67.50
27978;DHT22;15314;49.248;6.968;2022-08-25T01:30:22;19.80;67.40
27978;DHT22;15314;49.248;6.968;2022-08-25T01:31:23;19.80;67.50
27978;DHT22;15314;49.248;6.968;2022-08-25T01:32:24;19.80;67.50
27978;DHT22;15314;49.248;6.968;2022-08-25T01:33:24;19.70;67.80
27978;DHT22;15314;49.248;6.968;2022-08-25T01:34:27;19.70;68.00
27978;DHT22;15314;49.248;6.968;2022-08-25T01:35:29;19.60;68.10
27978;DHT22;15314;49.248;6.968;2022-08-25T01:36:29;19.60;68.00
27978;DHT22;15314;49.248;6.968;2022-08-25T01:37:33;19.50;68.00
27978;DHT22;15314;49.248;6.968;2022-08-25T01:38:34;19.60;68.50
27978;DHT22;15314;49.248;6.968;2022-08-25T01:39:34;19.50;68.50
27978;DHT22;15314;49.248;6.968;2022-08-25T01:40:39;19.40;68.80
27978;DHT22;15314;49.248;6.968;2022-08-25T01:42:57;19.50;68.80
27978;DHT22;15314;49.248;6.968;2022-08-25T01:44:02;19.50;68.70
27978;DHT22;15314;49.248;6.968;2022-08-25T01:45:05;19.40;68.70
27978;DHT22;15314;49.248;6.968;2022-08-25T01:46:06;19.50;68.80
27978;DHT22;15314;49.248;6.968;2022-08-25T01:47:07;19.50;68.80
27978;DHT22;15314;49.248;6.968;2022-08-25T01:48:08;19.50;68.80
27978;DHT22;15314;49.248;6.968;2022-08-25T01:49:09;19.40;69.00
27978;DHT22;15314;49.248;6.968;2022-08-25T01:50:10;19.40;69.00
27978;DHT22;15314;49.248;6.968;2022-08-25T01:51:12;19.40;68.90
27978;DHT22;15314;49.248;6.968;2022-08-25T01:52:24;19.40;68.90
27978;DHT22;15314;49.248;6.968;2022-08-25T01:53:29;19.50;69.30
27978;DHT22;15314;49.248;6.968;2022-08-25T01:54:30;19.40;69.10
27978;DHT22;15314;49.248;6.968;2022-08-25T01:55:31;19.30;69.30
27978;DHT22;15314;49.248;6.968;2022-08-25T01:56:50;19.30;69.30
27978;DHT22;15314;49.248;6.968;2022-08-25T01:57:51;19.30;69.40
27978;DHT22;15314;49.248;6.968;2022-08-25T01:58:52;19.30;69.60
27978;DHT22;15314;49.248;6.968;2022-08-25T01:59:52;19.30;69.70
27978;DHT22;15314;49.248;6.968;2022-08-25T02:00:55;19.20;69.60
27978;DHT22;15314;49.248;6.968;2022-08-25T02:01:56;19.20;69.50
27978;DHT22;15314;49.248;6.968;2022-08-25T02:02:57;19.30;69.70
27978;DHT22;15314;49.248;6.968;2022-08-25T02:03:57;19.20;69.60
27978;DHT22;15314;49.248;6.968;2022-08-25T02:04:58;19.10;70.00
27978;DHT22;15314;49.248;6.968;2022-08-25T02:05:59;19.20;70.00
27978;DHT22;15314;49.248;6.968;2022-08-25T02:07:04;19.20;70.00
27978;DHT22;15314;49.248;6.968;2022-08-25T02:08:06;19.20;70.10
27978;DHT22;15314;49.248;6.968;2022-08-25T02:09:11;19.10;70.20
27978;DHT22;15314;49.248;6.968;2022-08-25T02:10:12;19.20;70.10
27978;DHT22;15314;49.248;6.968;2022-08-25T02:11:13;19.10;69.90
27978;DHT22;15314;49.248;6.968;2022-08-25T02:12:14;19.10;70.30
27978;DHT22;15314;49.248;6.968;2022-08-25T02:13:15;19.10;70.20
27978;DHT22;15314;49.248;6.968;2022-08-25T02:14:17;19.00;70.20
27978;DHT22;15314;49.248;6.968;2022-08-25T02:15:19;19.10;70.00
27978;DHT22;15314;49.248;6.968;2022-08-25T02:16:23;19.00;70.30
27978;DHT22;15314;49.248;6.968;2022-08-25T02:17:24;19.00;70.40
27978;DHT22;15314;49.248;6.968;2022-08-25T02:18:25;19.00;70.40
27978;DHT22;15314;49.248;6.968;2022-08-25T02:19:26;18.90;70.40
27978;DHT22;15314;49.248;6.968;2022-08-25T02:20:26;19.00;70.40
27978;DHT22;15314;49.248;6.968;2022-08-25T02:21:27;19.00;70.50
27978;DHT22;15314;49.248;6.968;2022-08-25T02:22:28;19.00;70.70
27978;DHT22;15314;49.248;6.968;2022-08-25T02:23:29;19.00;70.60
27978;DHT22;15314;49.248;6.968;2022-08-25T02:24:29;18.90;70.70
27978;DHT22;15314;49.248;6.968;2022-08-25T02:25:30;19.00;70.80
27978;DHT22;15314;49.248;6.968;2022-08-25T02:26:31;19.00;70.50
27978;DHT22;15314;49.248;6.968;2022-08-25T02:27:32;19.00;70.50
27978;DHT22;15314;49.248;6.968;2022-08-25T02:28:33;19.10;70.60
27978;DHT22;15314;49.248;6.968;2022-08-25T02:29:33;19.10;70.50
27978;DHT22;15314;49.248;6.968;2022-08-25T02:30:39;19.10;70.50
27978;DHT22;15314;49.248;6.968;2022-08-25T02:31:40;19.10;70.50
27978;DHT22;15314;49.248;6.968;2022-08-25T02:32:41;19.10;70.40
27978;DHT22;15314;49.248;6.968;2022-08-25T02:33:42;19.10;70.70
27978;DHT22;15314;49.248;6.968;2022-08-25T02:34:42;19.20;70.60
27978;DHT22;15314;49.248;6.968;2022-08-25T02:35:43;19.20;70.70
27978;DHT22;15314;49.248;6.968;2022-08-25T02:36:44;19.10;70.70
27978;DHT22;15314;49.248;6.968;2022-08-25T02:37:44;19.10;70.70
27978;DHT22;15314;49.248;6.968;2022-08-25T02:38:45;19.10;70.70
27978;DHT22;15314;49.248;6.968;2022-08-25T02:39:46;19.10;70.70
27978;DHT22;15314;49.248;6.968;2022-08-25T02:40:47;19.10;70.70
27978;DHT22;15314;49.248;6.968;2022-08-25T02:41:48;19.00;70.80
27978;DHT22;15314;49.248;6.968;2022-08-25T02:42:49;18.90;70.90
27978;DHT22;15314;49.248;6.968;2022-08-25T02:43:52;19.00;71.30
27978;DHT22;15314;49.248;6.968;2022-08-25T02:44:54;19.00;71.10
27978;DHT22;15314;49.248;6.968;2022-08-25T02:45:55;18.90;71.20
27978;DHT22;15314;49.248;6.968;2022-08-25T02:46:56;18.90;71.30
27978;DHT22;15314;49.248;6.968;2022-08-25T02:47:57;18.90;71.40
27978;DHT22;15314;49.248;6.968;2022-08-25T02:48:58;18.80;71.70
27978;DHT22;15314;49.248;6.968;2022-08-25T02:49:58;18.80;71.90
27978;DHT22;15314;49.248;6.968;2022-08-25T02:51:00;18.80;72.10
27978;DHT22;15314;49.248;6.968;2022-08-25T02:52:01;18.80;72.10
27978;DHT22;15314;49.248;6.968;2022-08-25T02:53:01;18.70;72.10
27978;DHT22;15314;49.248;6.968;2022-08-25T02:54:03;18.70;72.30
27978;DHT22;15314;49.248;6.968;2022-08-25T02:55:07;18.70;72.10
27978;DHT22;15314;49.248;6.968;2022-08-25T02:56:09;18.80;72.20
27978;DHT22;15314;49.248;6.968;2022-08-25T02:57:10;18.70;72.10
27978;DHT22;15314;49.248;6.968;2022-08-25T02:58:13;18.80;72.20
27978;DHT22;15314;49.248;6.968;2022-08-25T02:59:14;18.80;72.30
27978;DHT22;15314;49.248;6.968;2022-08-25T03:00:15;18.80;72.00
27978;DHT22;15314;49.248;6.968;2022-08-25T03:01:16;18.90;71.70
27978;DHT22;15314;49.248;6.968;2022-08-25T03:02:17;18.90;71.40
27978;DHT22;15314;49.248;6.968;2022-08-25T03:03:19;19.00;71.40
27978;DHT22;15314;49.248;6.968;2022-08-25T03:04:20;19.00;71.40
27978;DHT22;15314;49.248;6.968;2022-08-25T03:05:21;19.10;71.40
27978;DHT22;15314;49.248;6.968;2022-08-25T03:06:21;19.10;71.10
27978;DHT22;15314;49.248;6.968;2022-08-25T03:07:23;19.00;71.20
27978;DHT22;15314;49.248;6.968;2022-08-25T03:08:24;18.90;71.40
27978;DHT22;15314;49.248;6.968;2022-08-25T03:09:26;18.90;72.30
27978;DHT22;15314;49.248;6.968;2022-08-25T03:10:26;18.80;72.10
27978;DHT22;15314;49.248;6.968;2022-08-25T03:11:27;18.70;72.10
27978;DHT22;15314;49.248;6.968;2022-08-25T03:12:28;18.70;72.10
27978;DHT22;15314;49.248;6.968;2022-08-25T03:13:28;18.70;72.50
27978;DHT22;15314;49.248;6.968;2022-08-25T03:14:29;18.70;72.30
27978;DHT22;15314;49.248;6.968;2022-08-25T03:15:30;18.70;72.70
27978;DHT22;15314;49.248;6.968;2022-08-25T03:16:31;18.60;72.80
27978;DHT22;15314;49.248;6.968;2022-08-25T03:17:31;18.60;72.80
27978;DHT22;15314;49.248;6.968;2022-08-25T03:18:32;18.60;72.70
27978;DHT22;15314;49.248;6.968;2022-08-25T03:19:33;18.60;72.70
27978;DHT22;15314;49.248;6.968;2022-08-25T03:20:34;18.50;73.00
27978;DHT22;15314;49.248;6.968;2022-08-25T03:21:36;18.60;72.90
27978;DHT22;15314;49.248;6.968;2022-08-25T03:22:37;18.50;72.80
27978;DHT22;15314;49.248;6.968;2022-08-25T03:23:39;18.50;73.00
27978;DHT22;15314;49.248;6.968;2022-08-25T03:24:40;18.50;72.90
27978;DHT22;15314;49.248;6.968;2022-08-25T03:25:41;18.60;73.10
27978;DHT22;15314;49.248;6.968;2022-08-25T03:27:00;18.60;73.10
27978;DHT22;15314;49.248;6.968;2022-08-25T03:28:02;18.50;73.20
27978;DHT22;15314;49.248;6.968;2022-08-25T03:29:03;18.50;73.30
27978;DHT22;15314;49.248;6.968;2022-08-25T03:30:07;18.50;73.30
27978;DHT22;15314;49.248;6.968;2022-08-25T03:31:08;18.40;73.50
27978;DHT22;15314;49.248;6.968;2022-08-25T03:32:09;18.40;73.60
27978;DHT22;15314;49.248;6.968;2022-08-25T03:33:10;18.40;73.50
27978;DHT22;15314;49.248;6.968;2022-08-25T03:34:12;18.40;73.70
27978;DHT22;15314;49.248;6.968;2022-08-25T03:35:13;18.30;73.90
27978;DHT22;15314;49.248;6.968;2022-08-25T03:36:14;18.40;73.90
27978;DHT22;15314;49.248;6.968;2022-08-25T03:37:15;18.30;73.90
27978;DHT22;15314;49.248;6.968;2022-08-25T03:38:15;18.40;73.90
27978;DHT22;15314;49.248;6.968;2022-08-25T03:39:18;18.30;73.80
27978;DHT22;15314;49.248;6.968;2022-08-25T03:40:19;18.40;73.90
27978;DHT22;15314;49.248;6.968;2022-08-25T03:41:25;18.40;73.70
27978;DHT22;15314;49.248;6.968;2022-08-25T03:42:27;18.40;73.90
27978;DHT22;15314;49.248;6.968;2022-08-25T03:43:28;18.40;73.90
27978;DHT22;15314;49.248;6.968;2022-08-25T03:44:28;18.40;73.50
27978;DHT22;15314;49.248;6.968;2022-08-25T03:45:29;18.40;73.40
27978;DHT22;15314;49.248;6.968;2022-08-25T03:46:38;18.40;73.50
27978;DHT22;15314;49.248;6.968;2022-08-25T03:47:39;18.50;73.60
27978;DHT22;15314;49.248;6.968;2022-08-25T03:48:40;18.50;73.60
27978;DHT22;15314;49.248;6.968;2022-08-25T03:49:40;18.50;73.30
27978;DHT22;15314;49.248;6.968;2022-08-25T03:50:48;18.50;73.30
27978;DHT22;15314;49.248;6.968;2022-08-25T03:51:52;18.60;73.10
27978;DHT22;15314;49.248;6.968;2022-08-25T03:52:55;18.60;73.10
27978;DHT22;15314;49.248;6.968;2022-08-25T03:53:57;18.70;73.00
27978;DHT22;15314;49.248;6.968;2022-08-25T03:54:58;18.60;73.00
27978;DHT22;15314;49.248;6.968;2022-08-25T03:55:58;18.60;73.20
27978;DHT22;15314;49.248;6.968;2022-08-25T03:56:59;18.70;72.90
27978;DHT22;15314;49.248;6.968;2022-08-25T03:58:00;18.70;73.00
27978;DHT22;15314;49.248;6.968;2022-08-25T03:59:01;18.70;73.00
27978;DHT22;15314;49.248;6.968;2022-08-25T04:00:05;18.70;72.90
27978;DHT22;15314;49.248;6.968;2022-08-25T04:01:07;18.70;73.10
27978;DHT22;15314;49.248;6.968;2022-08-25T04:02:08;18.70;73.20
27978;DHT22;15314;49.248;6.968;2022-08-25T04:03:09;18.70;73.10
27978;DHT22;15314;49.248;6.968;2022-08-25T04:04:11;18.70;73.10
27978;DHT22;15314;49.248;6.968;2022-08-25T04:05:13;18.60;73.20
27978;DHT22;15314;49.248;6.968;2022-08-25T04:06:16;18.50;73.60
27978;DHT22;15314;49.248;6.968;2022-08-25T04:07:17;18.50;73.70
27978;DHT22;15314;49.248;6.968;2022-08-25T04:08:17;18.50;73.70
27978;DHT22;15314;49.248;6.968;2022-08-25T04:09:18;18.40;73.60
27978;DHT22;15314;49.248;6.968;2022-08-25T04:10:19;18.40;73.90
27978;DHT22;15314;49.248;6.968;2022-08-25T04:11:22;18.40;74.10
27978;DHT22;15314;49.248;6.968;2022-08-25T04:12:23;18.40;73.90
27978;DHT22;15314;49.248;6.968;2022-08-25T04:13:23;18.40;73.80
27978;DHT22;15314;49.248;6.968;2022-08-25T04:14:24;18.50;73.80
27978;DHT22;15314;49.248;6.968;2022-08-25T04:15:25;18.40;73.70
27978;DHT22;15314;49.248;6.968;2022-08-25T04:16:28;18.40;74.20
27978;DHT22;15314;49.248;6.968;2022-08-25T04:17:30;18.40;74.20
27978;DHT22;15314;49.248;6.968;2022-08-25T04:18:31;18.40;74.20
27978;DHT22;15314;49.248;6.968;2022-08-25T04:19:34;18.40;74.20
27978;DHT22;15314;49.248;6.968;2022-08-25T04:20:35;18.40;74.10
27978;DHT22;15314;49.248;6.968;2022-08-25T04:21:38;18.50;74.20
27978;DHT22;15314;49.248;6.968;2022-08-25T04:22:39;18.40;73.90
27978;DHT22;15314;49.248;6.968;2022-08-25T04:23:42;18.40;73.90
27978;DHT22;15314;49.248;6.968;2022-08-25T04:24:43;18.40;74.20
27978;DHT22;15314;49.248;6.968;2022-08-25T04:25:44;18.50;73.80
27978;DHT22;15314;49.248;6.968;2022-08-25T04:26:47;18.50;73.90
27978;DHT22;15314;49.248;6.968;2022-08-25T04:27:49;18.50;74.00
27978;DHT22;15314;49.248;6.968;2022-08-25T04:28:50;18.40;73.90
27978;DHT22;15314;49.248;6.968;2022-08-25T04:29:50;18.40;73.90
27978;DHT22;15314;49.248;6.968;2022-08-25T04:30:51;18.40;74.00
27978;DHT22;15314;49.248;6.968;2022-08-25T04:31:52;18.30;74.20
27978;DHT22;15314;49.248;6.968;2022-08-25T04:32:53;18.30;74.30
27978;DHT22;15314;49.248;6.968;2022-08-25T04:33:55;18.30;74.40
27978;DHT22;15314;49.248;6.968;2022-08-25T04:34:56;18.30;74.30
27978;DHT22;15314;49.248;6.968;2022-08-25T04:35:56;18.30;74.40
27978;DHT22;15314;49.248;6.968;2022-08-25T04:37:00;18.30;74.40
27978;DHT22;15314;49.248;6.968;2022-08-25T04:38:01;18.30;74.40
27978;DHT22;15314;49.248;6.968;2022-08-25T04:39:02;18.30;74.50
27978;DHT22;15314;49.248;6.968;2022-08-25T04:40:04;18.20;74.60
27978;DHT22;15314;49.248;6.968;2022-08-25T04:41:06;18.20;74.70
27978;DHT22;15314;49.248;6.968;2022-08-25T04:42:07;18.30;74.70
27978;DHT22;15314;49.248;6.968;2022-08-25T04:43:08;18.30;74.80
27978;DHT22;15314;49.248;6.968;2022-08-25T04:44:08;18.30;74.80
27978;DHT22;15314;49.248;6.968;2022-08-25T04:45:09;18.30;74.90
27978;DHT22;15314;49.248;6.968;2022-08-25T04:46:16;18.40;74.80
27978;DHT22;15314;49.248;6.968;2022-08-25T04:47:17;18.40;74.70
27978;DHT22;15314;49.248;6.968;2022-08-25T04:48:38;18.40;74.50
27978;DHT22;15314;49.248;6.968;2022-08-25T04:49:59;18.50;74.70
27978;DHT22;15314;49.248;6.968;2022-08-25T04:51:23;18.50;74.40
27978;DHT22;15314;49.248;6.968;2022-08-25T04:52:43;18.50;74.50
27978;DHT22;15314;49.248;6.968;2022-08-25T04:54:07;18.60;74.40
27978;DHT22;15314;49.248;6.968;2022-08-25T04:55:28;18.60;74.30
27978;DHT22;15314;49.248;6.968;2022-08-25T04:56:50;18.60;73.90
27978;DHT22;15314;49.248;6.968;2022-08-25T04:58:11;18.70;74.00
27978;DHT22;15314;49.248;6.968;2022-08-25T04:59:32;18.70;74.20
27978;DHT22;15314;49.248;6.968;2022-08-25T05:01:04;18.70;74.70
27978;DHT22;15314;49.248;6.968;2022-08-25T05:02:25;18.70;75.20
27978;DHT22;15314;49.248;6.968;2022-08-25T05:03:50;18.80;74.70
27978;DHT22;15314;49.248;6.968;2022-08-25T05:05:11;18.70;74.20
27978;DHT22;15314;49.248;6.968;2022-08-25T05:06:32;18.80;74.60
27978;DHT22;15314;49.248;6.968;2022-08-25T05:07:53;18.80;74.40
27978;DHT22;15314;49.248;6.968;2022-08-25T05:09:13;18.80;74.40
27978;DHT22;15314;49.248;6.968;2022-08-25T05:10:39;18.90;73.60
27978;DHT22;15314;49.248;6.968;2022-08-25T05:12:00;18.90;73.90
27978;DHT22;15314;49.248;6.968;2022-08-25T05:13:22;19.00;73.50
27978;DHT22;15314;49.248;6.968;2022-08-25T05:14:43;19.00;73.50
27978;DHT22;15314;49.248;6.968;2022-08-25T05:16:04;19.00;73.50
27978;DHT22;15314;49.248;6.968;2022-08-25T05:17:25;18.90;73.70
27978;DHT22;15314;49.248;6.968;2022-08-25T05:18:47;19.00;73.80
27978;DHT22;15314;49.248;6.968;2022-08-25T05:20:08;19.00;73.70
27978;DHT22;15314;49.248;6.968;2022-08-25T05:21:29;18.90;73.70
27978;DHT22;15314;49.248;6.968;2022-08-25T05:22:50;18.90;73.70
27978;DHT22;15314;49.248;6.968;2022-08-25T05:24:10;18.90;73.80
27978;DHT22;15314;49.248;6.968;2022-08-25T05:25:31;18.90;73.80
27978;DHT22;15314;49.248;6.968;2022-08-25T05:26:52;18.90;73.90
27978;DHT22;15314;49.248;6.968;2022-08-25T05:28:13;19.00;74.00
27978;DHT22;15314;49.248;6.968;2022-08-25T05:29:34;19.00;73.40
27978;DHT22;15314;49.248;6.968;2022-08-25T05:30:59;19.10;73.50
27978;DHT22;15314;49.248;6.968;2022-08-25T05:32:20;19.10;73.70
27978;DHT22;15314;49.248;6.968;2022-08-25T05:33:41;19.20;73.50
27978;DHT22;15314;49.248;6.968;2022-08-25T05:35:02;19.20;73.30
27978;DHT22;15314;49.248;6.968;2022-08-25T05:36:25;19.20;73.40
27978;DHT22;15314;49.248;6.968;2022-08-25T05:37:46;19.30;73.10
27978;DHT22;15314;49.248;6.968;2022-08-25T05:39:07;19.30;73.20
27978;DHT22;15314;49.248;6.968;2022-08-25T05:40:28;19.30;73.40
27978;DHT22;15314;49.248;6.968;2022-08-25T05:41:48;19.30;73.30
27978;DHT22;15314;49.248;6.968;2022-08-25T05:43:09;19.30;73.40
27978;DHT22;15314;49.248;6.968;2022-08-25T05:44:29;19.30;73.10
27978;DHT22;15314;49.248;6.968;2022-08-25T05:45:54;19.40;72.80
27978;DHT22;15314;49.248;6.968;2022-08-25T05:47:15;19.50;72.70
27978;DHT22;15314;49.248;6.968;2022-08-25T05:48:36;19.50;72.60
27978;DHT22;15314;49.248;6.968;2022-08-25T05:49:57;19.60;72.40
27978;DHT22;15314;49.248;6.968;2022-08-25T05:51:18;19.60;72.60
27978;DHT22;15314;49.248;6.968;2022-08-25T05:52:39;19.60;72.70
27978;DHT22;15314;49.248;6.968;2022-08-25T05:54:00;19.60;73.10
27978;DHT22;15314;49.248;6.968;2022-08-25T05:55:21;19.50;72.90
27978;DHT22;15314;49.248;6.968;2022-08-25T05:56:41;19.60;72.90
27978;DHT22;15314;49.248;6.968;2022-08-25T05:58:02;19.60;72.50
27978;DHT22;15314;49.248;6.968;2022-08-25T05:59:23;19.70;72.70
27978;DHT22;15314;49.248;6.968;2022-08-25T06:00:43;19.80;72.30
27978;DHT22;15314;49.248;6.968;2022-08-25T06:02:04;19.90;72.30
27978;DHT22;15314;49.248;6.968;2022-08-25T06:03:44;19.90;71.80
27978;DHT22;15314;49.248;6.968;2022-08-25T06:05:04;20.00;71.30
27978;DHT22;15314;49.248;6.968;2022-08-25T06:06:25;20.10;71.10
27978;DHT22;15314;49.248;6.968;2022-08-25T06:07:47;20.20;70.90
27978;DHT22;15314;49.248;6.968;2022-08-25T06:09:09;20.30;70.80
27978;DHT22;15314;49.248;6.968;2022-08-25T06:10:30;20.40;70.40
27978;DHT22;15314;49.248;6.968;2022-08-25T06:11:51;20.60;70.30
27978;DHT22;15314;49.248;6.968;2022-08-25T06:13:12;20.60;70.10
27978;DHT22;15314;49.248;6.968;2022-08-25T06:14:33;20.60;69.90
27978;DHT22;15314;49.248;6.968;2022-08-25T06:16:00;20.70;70.10
27978;DHT22;15314;49.248;6.968;2022-08-25T06:17:20;20.90;69.80
27978;DHT22;15314;49.248;6.968;2022-08-25T06:18:42;20.90;69.50
27978;DHT22;15314;49.248;6.968;2022-08-25T06:20:03;21.00;69.20
27978;DHT22;15314;49.248;6.968;2022-08-25T06:21:25;21.00;69.30
27978;DHT22;15314;49.248;6.968;2022-08-25T06:22:45;21.10;69.20
27978;DHT22;15314;49.248;6.968;2022-08-25T06:24:07;21.10;69.00
27978;DHT22;15314;49.248;6.968;2022-08-25T06:25:29;21.30;69.10
27978;DHT22;15314;49.248;6.968;2022-08-25T06:26:53;21.50;68.20
27978;DHT22;15314;49.248;6.968;2022-08-25T06:28:14;21.60;67.60
27978;DHT22;15314;49.248;6.968;2022-08-25T06:29:34;21.60;67.60
27978;DHT22;15314;49.248;6.968;2022-08-25T06:30:59;21.70;67.60
27978;DHT22;15314;49.248;6.968;2022-08-25T06:32:20;21.70;67.50
27978;DHT22;15314;49.248;6.968;2022-08-25T06:33:40;21.80;67.70
27978;DHT22;15314;49.248;6.968;2022-08-25T06:35:05;21.90;67.40
27978;DHT22;15314;49.248;6.968;2022-08-25T06:36:26;22.10;67.10
27978;DHT22;15314;49.248;6.968;2022-08-25T06:37:47;22.00;67.00
27978;DHT22;15314;49.248;6.968;2022-08-25T06:39:08;22.00;67.00
27978;DHT22;15314;49.248;6.968;2022-08-25T06:40:29;22.10;67.00
27978;DHT22;15314;49.248;6.968;2022-08-25T06:41:54;22.30;66.90
27978;DHT22;15314;49.248;6.968;2022-08-25T06:43:15;22.50;66.20
27978;DHT22;15314;49.248;6.968;2022-08-25T06:44:36;22.80;65.80
27978;DHT22;15314;49.248;6.968;2022-08-25T06:45:56;22.80;65.50
27978;DHT22;15314;49.248;6.968;2022-08-25T06:47:17;23.00;65.30
27978;DHT22;15314;49.248;6.968;2022-08-25T06:48:38;23.10;65.20
27978;DHT22;15314;49.248;6.968;2022-08-25T06:49:59;23.10;65.30
27978;DHT22;15314;49.248;6.968;2022-08-25T06:51:21;23.10;65.10
27978;DHT22;15314;49.248;6.968;2022-08-25T06:52:42;23.20;65.70
27978;DHT22;15314;49.248;6.968;2022-08-25T06:54:04;23.50;65.00
27978;DHT22;15314;49.248;6.968;2022-08-25T06:55:25;23.40;64.70
27978;DHT22;15314;49.248;6.968;2022-08-25T06:56:46;23.50;64.90
27978;DHT22;15314;49.248;6.968;2022-08-25T06:58:07;23.50;64.80
27978;DHT22;15314;49.248;6.968;2022-08-25T06:59:29;23.50;64.90
27978;DHT22;15314;49.248;6.968;2022-08-25T07:00:50;23.60;65.00
27978;DHT22;15314;49.248;6.968;2022-08-25T07:02:10;23.90;64.50
27978;DHT22;15314;49.248;6.968;2022-08-25T07:03:31;25.10;62.90
27978;DHT22;15314;49.248;6.968;2022-08-25T07:04:51;26.00;60.50
27978;DHT22;15314;49.248;6.968;2022-08-25T07:06:13;26.00;59.80
27978;DHT22;15314;49.248;6.968;2022-08-25T07:07:33;26.00;59.70